BAW23T LTFM-OTHH
Flight info
| Callsign | BAW23T |
|---|---|
| Flight time | 3h 36m |
| Altitude | 39000 |
| Route | RATVU1D/35L RATVU UT35 UNEPI UT38 VESAR L620 ALSUS M978 NIKAS R785 RASLI P559 TRF V45 VATIM/N0487F410 V45 ITIXI M691 SILBA H979 DASVA N318 HAYYA |
| Aircraft | A388/J-SADE2E3FGHIJ3J4J5M1RWXY/LB1D1 |
Departure
| Time | 2026-05-05 17:08 |
|---|---|
| Airport | İstanbul Airport (LTFM) |
Arrival
| Time | 2026-05-05 20:44 |
|---|---|
| Airport | Hamad International Airport (OTHH) |
| Time | Latitude | Longitude | Altitude | Speed | Heading |
|---|---|---|---|---|---|
| 2026-05-05 16:38 | 41.26792 | 28.73771 | 336 ft | 0 kts | 268° |
| 2026-05-05 16:55 | 41.26792 | 28.73768 | 336 ft | 2 kts | 268° |
| 2026-05-05 16:55 | 41.26792 | 28.73766 | 336 ft | 0 kts | 268° |
| 2026-05-05 16:55 | 41.26792 | 28.73767 | 336 ft | 0 kts | 268° |
| 2026-05-05 16:56 | 41.26793 | 28.73786 | 336 ft | 5 kts | 268° |
| 2026-05-05 16:56 | 41.26793 | 28.73811 | 335 ft | 3 kts | 269° |
| 2026-05-05 16:56 | 41.26788 | 28.73843 | 334 ft | 4 kts | 289° |
| 2026-05-05 16:56 | 41.26768 | 28.73871 | 334 ft | 4 kts | 329° |
| 2026-05-05 16:57 | 41.26751 | 28.73875 | 334 ft | 0 kts | 356° |
| 2026-05-05 16:57 | 41.26752 | 28.73875 | 334 ft | 0 kts | 356° |
| 2026-05-05 16:57 | 41.26753 | 28.73875 | 334 ft | 0 kts | 356° |
| 2026-05-05 16:57 | 41.26754 | 28.73875 | 334 ft | 0 kts | 356° |
| 2026-05-05 17:00 | 41.26784 | 28.73872 | 334 ft | 10 kts | 356° |
| 2026-05-05 17:00 | 41.26852 | 28.73870 | 334 ft | 10 kts | 359° |
| 2026-05-05 17:00 | 41.26920 | 28.73872 | 335 ft | 10 kts | 359° |
| 2026-05-05 17:01 | 41.26998 | 28.73870 | 334 ft | 12 kts | 359° |
| 2026-05-05 17:01 | 41.27080 | 28.73869 | 334 ft | 12 kts | 348° |
| 2026-05-05 17:01 | 41.27132 | 28.73819 | 334 ft | 8 kts | 283° |
| 2026-05-05 17:01 | 41.27137 | 28.73739 | 336 ft | 9 kts | 270° |
| 2026-05-05 17:02 | 41.27136 | 28.73645 | 336 ft | 11 kts | 269° |
| 2026-05-05 17:02 | 41.27135 | 28.73509 | 336 ft | 18 kts | 269° |
| 2026-05-05 17:02 | 41.27133 | 28.73330 | 335 ft | 19 kts | 269° |
| 2026-05-05 17:02 | 41.27129 | 28.73171 | 335 ft | 15 kts | 255° |
| 2026-05-05 17:03 | 41.27073 | 28.73095 | 335 ft | 10 kts | 210° |
| 2026-05-05 17:03 | 41.27039 | 28.73030 | 334 ft | 9 kts | 246° |
| 2026-05-05 17:03 | 41.26998 | 28.72986 | 335 ft | 9 kts | 199° |
| 2026-05-05 17:03 | 41.26939 | 28.72988 | 336 ft | 10 kts | 175° |
| 2026-05-05 17:04 | 41.26857 | 28.72991 | 334 ft | 13 kts | 180° |
| 2026-05-05 17:04 | 41.26752 | 28.72992 | 335 ft | 17 kts | 179° |
| 2026-05-05 17:04 | 41.26625 | 28.72996 | 336 ft | 20 kts | 179° |
| 2026-05-05 17:04 | 41.26478 | 28.72998 | 334 ft | 23 kts | 179° |
| 2026-05-05 17:05 | 41.26313 | 28.73002 | 335 ft | 19 kts | 179° |
| 2026-05-05 17:05 | 41.26235 | 28.72992 | 338 ft | 8 kts | 217° |
| 2026-05-05 17:05 | 41.26222 | 28.72972 | 334 ft | 0 kts | 250° |
| 2026-05-05 17:06 | 41.26218 | 28.72956 | 336 ft | 9 kts | 262° |
| 2026-05-05 17:06 | 41.26212 | 28.72749 | 339 ft | 34 kts | 269° |
| 2026-05-05 17:06 | 41.26231 | 28.72533 | 335 ft | 17 kts | 321° |
| 2026-05-05 17:07 | 41.26336 | 28.72523 | 335 ft | 16 kts | 1° |
| 2026-05-05 17:07 | 41.26362 | 28.72523 | 334 ft | 0 kts | 359° |
| 2026-05-05 17:07 | 41.26363 | 28.72523 | 334 ft | 1 kts | 359° |
| 2026-05-05 17:07 | 41.26600 | 28.72518 | 337 ft | 75 kts | 359° |
| 2026-05-05 17:08 | 41.27362 | 28.72497 | 335 ft | 140 kts | 359° |
| 2026-05-05 17:08 | 41.28468 | 28.72464 | 421 ft | 171 kts | 358° |
| 2026-05-05 17:08 | 41.29659 | 28.72438 | 959 ft | 168 kts | 359° |
| 2026-05-05 17:08 | 41.30808 | 28.72450 | 1527 ft | 167 kts | 4° |
| 2026-05-05 17:09 | 41.31944 | 28.72840 | 2005 ft | 173 kts | 28° |
| 2026-05-05 17:09 | 41.32842 | 28.73996 | 2395 ft | 189 kts | 62° |
| 2026-05-05 17:09 | 41.33074 | 28.75767 | 2655 ft | 204 kts | 99° |
| 2026-05-05 17:09 | 41.32441 | 28.77531 | 2939 ft | 228 kts | 133° |
| 2026-05-05 17:10 | 41.31045 | 28.78680 | 3433 ft | 248 kts | 165° |
| 2026-05-05 17:10 | 41.29272 | 28.78812 | 4032 ft | 262 kts | 186° |
| 2026-05-05 17:10 | 41.27450 | 28.78595 | 4663 ft | 268 kts | 182° |
| 2026-05-05 17:10 | 41.25581 | 28.78703 | 4922 ft | 270 kts | 173° |
| 2026-05-05 17:11 | 41.23716 | 28.79199 | 5565 ft | 273 kts | 166° |
| 2026-05-05 17:11 | 41.21910 | 28.79897 | 6520 ft | 273 kts | 163° |
| 2026-05-05 17:11 | 41.20084 | 28.80694 | 7370 ft | 277 kts | 161° |
| 2026-05-05 17:11 | 41.18239 | 28.81531 | 8217 ft | 280 kts | 161° |
| 2026-05-05 17:12 | 41.16393 | 28.82332 | 9023 ft | 284 kts | 162° |
| 2026-05-05 17:12 | 41.14507 | 28.83207 | 9817 ft | 288 kts | 160° |
| 2026-05-05 17:12 | 41.12589 | 28.84126 | 10404 ft | 301 kts | 160° |
| 2026-05-05 17:12 | 41.10536 | 28.85089 | 10625 ft | 323 kts | 161° |
| 2026-05-05 17:13 | 41.08368 | 28.86080 | 10908 ft | 340 kts | 161° |
| 2026-05-05 17:13 | 41.06104 | 28.87100 | 11575 ft | 344 kts | 161° |
| 2026-05-05 17:13 | 41.03818 | 28.88124 | 12271 ft | 347 kts | 161° |
| 2026-05-05 17:13 | 41.01537 | 28.89143 | 12929 ft | 351 kts | 161° |
| 2026-05-05 17:14 | 40.99203 | 28.90185 | 13600 ft | 354 kts | 161° |
| 2026-05-05 17:14 | 40.96879 | 28.91221 | 14242 ft | 357 kts | 161° |
| 2026-05-05 17:14 | 40.94492 | 28.92286 | 14862 ft | 361 kts | 161° |
| 2026-05-05 17:14 | 40.92128 | 28.93339 | 15478 ft | 364 kts | 161° |
| 2026-05-05 17:15 | 40.89707 | 28.94418 | 16076 ft | 367 kts | 161° |
| 2026-05-05 17:15 | 40.87257 | 28.95506 | 16740 ft | 376 kts | 161° |
| 2026-05-05 17:15 | 40.84752 | 28.96620 | 17004 ft | 388 kts | 161° |
| 2026-05-05 17:15 | 40.82174 | 28.97767 | 17654 ft | 390 kts | 161° |
| 2026-05-05 17:16 | 40.79584 | 28.98918 | 18274 ft | 392 kts | 161° |
| 2026-05-05 17:16 | 40.76983 | 29.00072 | 18801 ft | 394 kts | 161° |
| 2026-05-05 17:16 | 40.74397 | 29.01218 | 19269 ft | 398 kts | 161° |
| 2026-05-05 17:16 | 40.71761 | 29.02385 | 19765 ft | 400 kts | 161° |
| 2026-05-05 17:17 | 40.69106 | 29.03560 | 20246 ft | 403 kts | 161° |
| 2026-05-05 17:17 | 40.66433 | 29.04742 | 20721 ft | 406 kts | 161° |
| 2026-05-05 17:17 | 40.63743 | 29.05930 | 21183 ft | 409 kts | 161° |
| 2026-05-05 17:17 | 40.61060 | 29.07114 | 21649 ft | 412 kts | 161° |
| 2026-05-05 17:18 | 40.58321 | 29.08322 | 22122 ft | 414 kts | 161° |
| 2026-05-05 17:18 | 40.55601 | 29.09520 | 22582 ft | 417 kts | 161° |
| 2026-05-05 17:18 | 40.52826 | 29.10742 | 23037 ft | 421 kts | 161° |
| 2026-05-05 17:18 | 40.50032 | 29.11971 | 23509 ft | 423 kts | 161° |
| 2026-05-05 17:19 | 40.47260 | 29.13189 | 23900 ft | 425 kts | 161° |
| 2026-05-05 17:19 | 40.44431 | 29.14431 | 24327 ft | 427 kts | 161° |
| 2026-05-05 17:19 | 40.41593 | 29.15677 | 24750 ft | 429 kts | 161° |
| 2026-05-05 17:19 | 40.38788 | 29.16906 | 25182 ft | 430 kts | 161° |
| 2026-05-05 17:20 | 40.35931 | 29.18157 | 25597 ft | 433 kts | 161° |
| 2026-05-05 17:20 | 40.33053 | 29.19416 | 26049 ft | 435 kts | 161° |
| 2026-05-05 17:20 | 40.30165 | 29.20679 | 26509 ft | 437 kts | 161° |
| 2026-05-05 17:20 | 40.27298 | 29.21931 | 26964 ft | 439 kts | 161° |
| 2026-05-05 17:21 | 40.24395 | 29.23197 | 27457 ft | 441 kts | 161° |
| 2026-05-05 17:21 | 40.21454 | 29.24479 | 27916 ft | 445 kts | 161° |
| 2026-05-05 17:21 | 40.18535 | 29.25751 | 28393 ft | 447 kts | 161° |
| 2026-05-05 17:22 | 40.12559 | 29.28350 | 29335 ft | 454 kts | 161° |
| 2026-05-05 17:22 | 40.09539 | 29.29662 | 29805 ft | 458 kts | 161° |
| 2026-05-05 17:22 | 40.06535 | 29.30965 | 30255 ft | 461 kts | 161° |
| 2026-05-05 17:22 | 40.03463 | 29.32297 | 30605 ft | 466 kts | 161° |
| 2026-05-05 17:23 | 40.00360 | 29.33641 | 30981 ft | 469 kts | 161° |
| 2026-05-05 17:23 | 39.97278 | 29.34974 | 31360 ft | 473 kts | 161° |
| 2026-05-05 17:23 | 39.94125 | 29.36337 | 31709 ft | 478 kts | 162° |
| 2026-05-05 17:23 | 39.90942 | 29.37720 | 32042 ft | 482 kts | 160° |
| 2026-05-05 17:24 | 39.87850 | 29.39352 | 32367 ft | 486 kts | 157° |
| 2026-05-05 17:24 | 39.84719 | 29.41092 | 32722 ft | 490 kts | 157° |
| 2026-05-05 17:24 | 39.81559 | 29.42839 | 33077 ft | 494 kts | 157° |
| 2026-05-05 17:24 | 39.78412 | 29.44573 | 33402 ft | 498 kts | 158° |
| 2026-05-05 17:25 | 39.75192 | 29.46342 | 33725 ft | 503 kts | 158° |
| 2026-05-05 17:25 | 39.73052 | 29.47516 | 33955 ft | 505 kts | 158° |
| 2026-05-05 17:25 | 39.68710 | 29.49895 | 34362 ft | 510 kts | 158° |
| 2026-05-05 17:25 | 39.65415 | 29.51698 | 34704 ft | 513 kts | 158° |
| 2026-05-05 17:26 | 39.62150 | 29.53466 | 35114 ft | 513 kts | 159° |
| 2026-05-05 17:26 | 39.60420 | 29.54353 | 35346 ft | 513 kts | 160° |
| 2026-05-05 17:28 | 39.58547 | 29.55284 | 35601 ft | 513 kts | 160° |
| 2026-05-05 17:28 | 39.55200 | 29.56925 | 36014 ft | 514 kts | 160° |
| 2026-05-05 17:28 | 39.51844 | 29.58571 | 36433 ft | 514 kts | 160° |
| 2026-05-05 17:29 | 39.48534 | 29.60205 | 36853 ft | 514 kts | 160° |
| 2026-05-05 17:29 | 39.45181 | 29.61869 | 37309 ft | 514 kts | 160° |
| 2026-05-05 17:29 | 39.41836 | 29.63531 | 37752 ft | 514 kts | 160° |
| 2026-05-05 17:29 | 39.38490 | 29.65195 | 38184 ft | 513 kts | 160° |
| 2026-05-05 17:30 | 39.35193 | 29.66833 | 38623 ft | 513 kts | 160° |
| 2026-05-05 17:30 | 39.31845 | 29.68495 | 38936 ft | 514 kts | 160° |
| 2026-05-05 17:30 | 39.28486 | 29.70160 | 39047 ft | 515 kts | 160° |
| 2026-05-05 17:30 | 39.25282 | 29.72107 | 39069 ft | 515 kts | 149° |
| 2026-05-05 17:31 | 39.22355 | 29.74827 | 39065 ft | 516 kts | 138° |
| 2026-05-05 17:31 | 39.17680 | 29.81795 | 39062 ft | 517 kts | 127° |
| 2026-05-05 17:32 | 39.13095 | 29.88947 | 39062 ft | 517 kts | 131° |
| 2026-05-05 17:32 | 39.10666 | 29.92417 | 39063 ft | 517 kts | 132° |
| 2026-05-05 17:33 | 39.06671 | 29.97937 | 39069 ft | 518 kts | 133° |
| 2026-05-05 17:33 | 39.02441 | 30.03711 | 39068 ft | 518 kts | 133° |
| 2026-05-05 17:34 | 38.97495 | 30.10448 | 39073 ft | 519 kts | 133° |
| 2026-05-05 17:34 | 38.92545 | 30.17180 | 39078 ft | 519 kts | 133° |
| 2026-05-05 17:35 | 38.87610 | 30.23879 | 39075 ft | 519 kts | 133° |
| 2026-05-05 17:35 | 38.82614 | 30.30646 | 39074 ft | 519 kts | 133° |
| 2026-05-05 17:36 | 38.77659 | 30.37342 | 39066 ft | 519 kts | 133° |
| 2026-05-05 17:36 | 38.72704 | 30.44024 | 39066 ft | 518 kts | 133° |
| 2026-05-05 17:37 | 38.67714 | 30.50739 | 39063 ft | 518 kts | 134° |
| 2026-05-05 17:37 | 38.62749 | 30.57406 | 39057 ft | 518 kts | 134° |
| 2026-05-05 17:38 | 38.57783 | 30.64060 | 39053 ft | 518 kts | 134° |
| 2026-05-05 17:38 | 38.52822 | 30.70693 | 39049 ft | 518 kts | 134° |
| 2026-05-05 17:39 | 38.47823 | 30.77362 | 39046 ft | 518 kts | 134° |
| 2026-05-05 17:39 | 38.42817 | 30.84027 | 39042 ft | 518 kts | 134° |
| 2026-05-05 17:40 | 38.37840 | 30.90638 | 39044 ft | 519 kts | 134° |
| 2026-05-05 17:40 | 38.32850 | 30.97254 | 39038 ft | 519 kts | 134° |
| 2026-05-05 17:41 | 38.27822 | 31.03904 | 39043 ft | 519 kts | 134° |
| 2026-05-05 17:41 | 38.22829 | 31.10495 | 39042 ft | 520 kts | 134° |
| 2026-05-05 17:42 | 38.17804 | 31.17115 | 39041 ft | 520 kts | 134° |
| 2026-05-05 17:42 | 38.12778 | 31.23721 | 39039 ft | 520 kts | 134° |
| 2026-05-05 17:43 | 38.07751 | 31.30315 | 39040 ft | 520 kts | 134° |
| 2026-05-05 17:43 | 38.02725 | 31.36893 | 39037 ft | 520 kts | 135° |
| 2026-05-05 17:44 | 37.97684 | 31.43477 | 39038 ft | 521 kts | 135° |
| 2026-05-05 17:44 | 37.93476 | 31.48964 | 39035 ft | 520 kts | 135° |
| 2026-05-05 17:45 | 37.88405 | 31.55562 | 39031 ft | 520 kts | 135° |
| 2026-05-05 17:45 | 37.83359 | 31.62113 | 39028 ft | 520 kts | 135° |
| 2026-05-05 17:46 | 37.78313 | 31.68651 | 39026 ft | 520 kts | 135° |
| 2026-05-05 17:46 | 37.73257 | 31.75189 | 39027 ft | 520 kts | 135° |
| 2026-05-05 17:47 | 37.68180 | 31.81740 | 39023 ft | 520 kts | 135° |
| 2026-05-05 17:47 | 37.63123 | 31.88252 | 39021 ft | 521 kts | 135° |
| 2026-05-05 17:48 | 37.58072 | 31.94741 | 39026 ft | 521 kts | 135° |
| 2026-05-05 17:48 | 37.52965 | 32.01291 | 39023 ft | 521 kts | 135° |
| 2026-05-05 17:49 | 37.47892 | 32.07782 | 39026 ft | 521 kts | 135° |
| 2026-05-05 17:49 | 37.42816 | 32.14265 | 39026 ft | 521 kts | 136° |
| 2026-05-05 17:50 | 37.37700 | 32.20785 | 39030 ft | 521 kts | 136° |
| 2026-05-05 17:50 | 37.32627 | 32.27236 | 39038 ft | 521 kts | 136° |
| 2026-05-05 17:51 | 37.27539 | 32.33695 | 39040 ft | 521 kts | 136° |
| 2026-05-05 17:51 | 37.22418 | 32.40181 | 39039 ft | 520 kts | 136° |
| 2026-05-05 17:52 | 37.17336 | 32.46605 | 39036 ft | 520 kts | 136° |
| 2026-05-05 17:52 | 37.12252 | 32.53018 | 39034 ft | 519 kts | 136° |
| 2026-05-05 17:53 | 37.07137 | 32.59458 | 39035 ft | 519 kts | 136° |
| 2026-05-05 17:53 | 37.02051 | 32.65848 | 39048 ft | 519 kts | 136° |
| 2026-05-05 17:54 | 36.96952 | 32.72241 | 39035 ft | 519 kts | 137° |
| 2026-05-05 17:54 | 36.91854 | 32.78621 | 39034 ft | 520 kts | 137° |
| 2026-05-05 17:55 | 36.86720 | 32.85032 | 39040 ft | 520 kts | 137° |
| 2026-05-05 17:55 | 36.81622 | 32.91387 | 39023 ft | 520 kts | 137° |
| 2026-05-05 17:56 | 36.76488 | 32.97772 | 39020 ft | 520 kts | 137° |
| 2026-05-05 17:56 | 36.71369 | 33.04125 | 39010 ft | 520 kts | 137° |
| 2026-05-05 17:57 | 36.66256 | 33.10460 | 39004 ft | 520 kts | 137° |
| 2026-05-05 17:57 | 36.61140 | 33.16785 | 39017 ft | 520 kts | 137° |
| 2026-05-05 17:58 | 36.55999 | 33.23130 | 38999 ft | 520 kts | 137° |
| 2026-05-05 17:58 | 36.50847 | 33.29474 | 39005 ft | 520 kts | 137° |
| 2026-05-05 17:59 | 36.45712 | 33.35786 | 38988 ft | 520 kts | 138° |
| 2026-05-05 17:59 | 36.40578 | 33.42084 | 39003 ft | 521 kts | 138° |
| 2026-05-05 18:00 | 36.35427 | 33.48390 | 38998 ft | 521 kts | 138° |
| 2026-05-05 18:00 | 36.30248 | 33.54718 | 38993 ft | 521 kts | 138° |
| 2026-05-05 18:01 | 36.25088 | 33.61010 | 38991 ft | 522 kts | 138° |
| 2026-05-05 18:01 | 36.19893 | 33.67333 | 38995 ft | 522 kts | 138° |
| 2026-05-05 18:02 | 36.14721 | 33.73616 | 38990 ft | 521 kts | 139° |
| 2026-05-05 18:02 | 36.09560 | 33.79872 | 38989 ft | 520 kts | 139° |
| 2026-05-05 18:03 | 36.04409 | 33.86106 | 38992 ft | 519 kts | 139° |
| 2026-05-05 18:03 | 35.99221 | 33.92376 | 38987 ft | 518 kts | 139° |
| 2026-05-05 18:04 | 35.94038 | 33.98532 | 38985 ft | 516 kts | 142° |
| 2026-05-05 18:04 | 35.88403 | 34.03912 | 38981 ft | 511 kts | 150° |
| 2026-05-05 18:05 | 35.82350 | 34.08422 | 38980 ft | 509 kts | 153° |
| 2026-05-05 18:05 | 35.76280 | 34.12896 | 38978 ft | 510 kts | 153° |
| 2026-05-05 18:06 | 35.70167 | 34.17408 | 38981 ft | 511 kts | 153° |
| 2026-05-05 18:06 | 35.64067 | 34.21873 | 38991 ft | 512 kts | 153° |
| 2026-05-05 18:07 | 35.57895 | 34.26365 | 38999 ft | 513 kts | 154° |
| 2026-05-05 18:07 | 35.51759 | 34.30827 | 39004 ft | 514 kts | 154° |
| 2026-05-05 18:08 | 35.45612 | 34.35291 | 39010 ft | 515 kts | 154° |
| 2026-05-05 18:08 | 35.39460 | 34.39751 | 39016 ft | 516 kts | 154° |
| 2026-05-05 18:09 | 35.33251 | 34.44244 | 39014 ft | 516 kts | 154° |
| 2026-05-05 18:09 | 35.27087 | 34.48696 | 39019 ft | 516 kts | 154° |
| 2026-05-05 18:10 | 35.20872 | 34.53178 | 39019 ft | 516 kts | 154° |
| 2026-05-05 18:10 | 35.14792 | 34.57800 | 39013 ft | 520 kts | 146° |
| 2026-05-05 18:11 | 35.09813 | 34.64335 | 39008 ft | 532 kts | 126° |
| 2026-05-05 18:11 | 35.06785 | 34.72597 | 39010 ft | 539 kts | 105° |
| 2026-05-05 18:12 | 35.06075 | 34.81677 | 39014 ft | 542 kts | 85° |
| 2026-05-05 18:12 | 35.07334 | 34.90761 | 39014 ft | 541 kts | 78° |
| 2026-05-05 18:13 | 35.08712 | 34.99787 | 39018 ft | 542 kts | 79° |
| 2026-05-05 18:13 | 35.10072 | 35.08823 | 39021 ft | 543 kts | 79° |
| 2026-05-05 18:14 | 35.11436 | 35.17935 | 39021 ft | 543 kts | 79° |
| 2026-05-05 18:14 | 35.12782 | 35.26971 | 39016 ft | 543 kts | 79° |
| 2026-05-05 18:15 | 35.14125 | 35.36031 | 39013 ft | 544 kts | 79° |
| 2026-05-05 18:15 | 35.15470 | 35.45149 | 39014 ft | 544 kts | 79° |
| 2026-05-05 18:16 | 35.16802 | 35.54235 | 39010 ft | 544 kts | 79° |
| 2026-05-05 18:16 | 35.18136 | 35.63380 | 39015 ft | 545 kts | 80° |
| 2026-05-05 18:17 | 35.19459 | 35.72495 | 39008 ft | 545 kts | 80° |
| 2026-05-05 18:17 | 35.20727 | 35.81609 | 39009 ft | 546 kts | 81° |
| 2026-05-05 18:18 | 35.21420 | 35.90812 | 39003 ft | 544 kts | 94° |
| 2026-05-05 18:18 | 35.20972 | 35.95394 | 39007 ft | 541 kts | 105° |
| 2026-05-05 18:18 | 35.19888 | 35.99728 | 39011 ft | 536 kts | 116° |
| 2026-05-05 18:18 | 35.18185 | 36.03760 | 39010 ft | 529 kts | 128° |
| 2026-05-05 18:19 | 35.15946 | 36.07295 | 39006 ft | 521 kts | 139° |
| 2026-05-05 18:19 | 35.10507 | 36.12990 | 39020 ft | 516 kts | 146° |
| 2026-05-05 18:20 | 35.05183 | 36.18974 | 39027 ft | 521 kts | 140° |
| 2026-05-05 18:20 | 35.00157 | 36.25368 | 39024 ft | 524 kts | 139° |
| 2026-05-05 18:21 | 34.95191 | 36.31839 | 39034 ft | 525 kts | 139° |
| 2026-05-05 18:21 | 34.90179 | 36.38353 | 39035 ft | 524 kts | 139° |
| 2026-05-05 18:22 | 34.85201 | 36.44799 | 39025 ft | 524 kts | 139° |
| 2026-05-05 18:22 | 34.80192 | 36.51270 | 39020 ft | 524 kts | 139° |
| 2026-05-05 18:23 | 34.75209 | 36.57695 | 39015 ft | 524 kts | 139° |
| 2026-05-05 18:23 | 34.70221 | 36.64116 | 39011 ft | 524 kts | 139° |
| 2026-05-05 18:24 | 34.65188 | 36.70581 | 39012 ft | 525 kts | 139° |
| 2026-05-05 18:24 | 34.60172 | 36.77012 | 39012 ft | 525 kts | 139° |
| 2026-05-05 18:25 | 34.55161 | 36.83425 | 39015 ft | 526 kts | 139° |
| 2026-05-05 18:25 | 34.50092 | 36.89899 | 39018 ft | 527 kts | 140° |
| 2026-05-05 18:26 | 34.45040 | 36.96341 | 39020 ft | 528 kts | 140° |
| 2026-05-05 18:26 | 34.39978 | 37.02783 | 39019 ft | 529 kts | 140° |
| 2026-05-05 18:27 | 34.34905 | 37.09227 | 39022 ft | 530 kts | 140° |
| 2026-05-05 18:27 | 34.29828 | 37.15664 | 39026 ft | 530 kts | 140° |
| 2026-05-05 18:28 | 34.21914 | 37.24880 | 39019 ft | 521 kts | 149° |
| 2026-05-05 18:28 | 34.15901 | 37.29656 | 39032 ft | 510 kts | 159° |
| 2026-05-05 18:29 | 34.09602 | 37.33429 | 39031 ft | 506 kts | 161° |
| 2026-05-05 18:29 | 34.04335 | 37.36566 | 39029 ft | 506 kts | 161° |
| 2026-05-05 18:30 | 33.98043 | 37.40318 | 39025 ft | 506 kts | 161° |
| 2026-05-05 18:30 | 33.91741 | 37.44067 | 39024 ft | 505 kts | 161° |
| 2026-05-05 18:31 | 33.85406 | 37.47829 | 39022 ft | 505 kts | 162° |
| 2026-05-05 18:31 | 33.79127 | 37.51551 | 39011 ft | 504 kts | 162° |
| 2026-05-05 18:32 | 33.72856 | 37.55262 | 39013 ft | 504 kts | 162° |
| 2026-05-05 18:32 | 33.66538 | 37.58995 | 39008 ft | 503 kts | 162° |
| 2026-05-05 18:33 | 33.60277 | 37.62688 | 39008 ft | 503 kts | 162° |
| 2026-05-05 18:33 | 33.54017 | 37.66359 | 39006 ft | 501 kts | 163° |
| 2026-05-05 18:34 | 33.47681 | 37.69825 | 39017 ft | 499 kts | 164° |
| 2026-05-05 18:34 | 33.41363 | 37.73263 | 39011 ft | 500 kts | 163° |
| 2026-05-05 18:35 | 33.35060 | 37.76902 | 39016 ft | 500 kts | 162° |
| 2026-05-05 18:35 | 33.28821 | 37.80526 | 39013 ft | 499 kts | 163° |
| 2026-05-05 18:36 | 33.22552 | 37.84139 | 39019 ft | 498 kts | 163° |
| 2026-05-05 18:36 | 33.16330 | 37.87712 | 39022 ft | 497 kts | 163° |
| 2026-05-05 18:37 | 33.10118 | 37.91273 | 39018 ft | 496 kts | 163° |
| 2026-05-05 18:37 | 33.03872 | 37.94848 | 39022 ft | 496 kts | 164° |
| 2026-05-05 18:38 | 32.97671 | 37.98392 | 39020 ft | 495 kts | 164° |
| 2026-05-05 18:38 | 32.91491 | 38.01954 | 39021 ft | 495 kts | 163° |
| 2026-05-05 18:39 | 32.85310 | 38.05642 | 39020 ft | 494 kts | 163° |
| 2026-05-05 18:39 | 32.79195 | 38.09291 | 39018 ft | 494 kts | 163° |
| 2026-05-05 18:40 | 32.73071 | 38.12934 | 39016 ft | 493 kts | 163° |
| 2026-05-05 18:40 | 32.66915 | 38.16585 | 39021 ft | 492 kts | 163° |
| 2026-05-05 18:41 | 32.60790 | 38.20211 | 39019 ft | 491 kts | 163° |
| 2026-05-05 18:41 | 32.54700 | 38.23810 | 39014 ft | 491 kts | 163° |
| 2026-05-05 18:42 | 32.48584 | 38.27419 | 39015 ft | 490 kts | 163° |
| 2026-05-05 18:42 | 32.42497 | 38.31006 | 39016 ft | 489 kts | 163° |
| 2026-05-05 18:43 | 32.36425 | 38.34579 | 39022 ft | 489 kts | 163° |
| 2026-05-05 18:43 | 32.30345 | 38.38151 | 39016 ft | 488 kts | 163° |
| 2026-05-05 18:44 | 32.24240 | 38.41732 | 39013 ft | 488 kts | 163° |
| 2026-05-05 18:44 | 32.18178 | 38.45282 | 39022 ft | 487 kts | 163° |
| 2026-05-05 18:45 | 32.12087 | 38.48844 | 39017 ft | 487 kts | 164° |
| 2026-05-05 18:45 | 32.06046 | 38.52372 | 39014 ft | 486 kts | 164° |
| 2026-05-05 18:46 | 31.99995 | 38.55901 | 39021 ft | 486 kts | 164° |
| 2026-05-05 18:46 | 31.93929 | 38.59433 | 39022 ft | 485 kts | 164° |
| 2026-05-05 18:47 | 31.87909 | 38.62934 | 39020 ft | 484 kts | 164° |
| 2026-05-05 18:47 | 31.81851 | 38.66456 | 39026 ft | 483 kts | 164° |
| 2026-05-05 18:48 | 31.75876 | 38.70027 | 39025 ft | 489 kts | 159° |
| 2026-05-05 18:48 | 31.73057 | 38.72392 | 39026 ft | 503 kts | 149° |
| 2026-05-05 18:48 | 31.70529 | 38.75315 | 39028 ft | 516 kts | 140° |
| 2026-05-05 18:49 | 31.68394 | 38.78715 | 39023 ft | 530 kts | 130° |
| 2026-05-05 18:49 | 31.66685 | 38.82617 | 39025 ft | 543 kts | 120° |
| 2026-05-05 18:49 | 31.64054 | 38.90978 | 39014 ft | 545 kts | 118° |
| 2026-05-05 18:50 | 31.61409 | 38.99269 | 39013 ft | 544 kts | 118° |
| 2026-05-05 18:50 | 31.58737 | 39.07590 | 39003 ft | 543 kts | 119° |
| 2026-05-05 18:51 | 31.56081 | 39.15845 | 39002 ft | 542 kts | 119° |
| 2026-05-05 18:51 | 31.53409 | 39.24132 | 38999 ft | 542 kts | 119° |
| 2026-05-05 18:52 | 31.50743 | 39.32377 | 38996 ft | 542 kts | 119° |
| 2026-05-05 18:52 | 31.48066 | 39.40637 | 38995 ft | 541 kts | 119° |
| 2026-05-05 18:53 | 31.45389 | 39.48873 | 38993 ft | 541 kts | 119° |
| 2026-05-05 18:53 | 31.42721 | 39.57067 | 38988 ft | 541 kts | 119° |
| 2026-05-05 18:54 | 31.40049 | 39.65333 | 38985 ft | 542 kts | 119° |
| 2026-05-05 18:54 | 31.37388 | 39.73568 | 38992 ft | 542 kts | 119° |
| 2026-05-05 18:55 | 31.34706 | 39.81835 | 38988 ft | 543 kts | 119° |
| 2026-05-05 18:55 | 31.32023 | 39.90080 | 38985 ft | 543 kts | 119° |
| 2026-05-05 18:56 | 31.29336 | 39.98315 | 38990 ft | 544 kts | 120° |
| 2026-05-05 18:56 | 31.26624 | 40.06609 | 38992 ft | 545 kts | 120° |
| 2026-05-05 18:57 | 31.23918 | 40.14859 | 38994 ft | 545 kts | 120° |
| 2026-05-05 18:57 | 31.21202 | 40.23121 | 38991 ft | 546 kts | 120° |
| 2026-05-05 18:58 | 31.18462 | 40.31436 | 38993 ft | 547 kts | 120° |
| 2026-05-05 18:58 | 31.15735 | 40.39689 | 38995 ft | 547 kts | 120° |
| 2026-05-05 18:59 | 31.12987 | 40.47986 | 38991 ft | 547 kts | 120° |
| 2026-05-05 18:59 | 31.10247 | 40.56238 | 38987 ft | 547 kts | 120° |
| 2026-05-05 19:00 | 31.07493 | 40.64512 | 38987 ft | 547 kts | 120° |
| 2026-05-05 19:00 | 31.04725 | 40.72808 | 38987 ft | 548 kts | 120° |
| 2026-05-05 19:01 | 31.01963 | 40.81063 | 38998 ft | 548 kts | 120° |
| 2026-05-05 19:01 | 30.99196 | 40.89314 | 38984 ft | 548 kts | 121° |
| 2026-05-05 19:02 | 30.96409 | 40.97601 | 38983 ft | 548 kts | 121° |
| 2026-05-05 19:02 | 30.93631 | 41.05842 | 38982 ft | 548 kts | 121° |
| 2026-05-05 19:03 | 30.90292 | 41.13679 | 38979 ft | 532 kts | 132° |
| 2026-05-05 19:03 | 30.86009 | 41.20491 | 38982 ft | 515 kts | 142° |
| 2026-05-05 19:04 | 30.81203 | 41.26697 | 38983 ft | 514 kts | 143° |
| 2026-05-05 19:04 | 30.76453 | 41.32877 | 38980 ft | 515 kts | 143° |
| 2026-05-05 19:05 | 30.71661 | 41.39100 | 38976 ft | 515 kts | 143° |
| 2026-05-05 19:05 | 30.66893 | 41.45276 | 38975 ft | 515 kts | 143° |
| 2026-05-05 19:06 | 30.62083 | 41.51495 | 38976 ft | 516 kts | 143° |
| 2026-05-05 19:06 | 30.57306 | 41.57662 | 38971 ft | 516 kts | 143° |
| 2026-05-05 19:07 | 30.52520 | 41.63831 | 38966 ft | 515 kts | 143° |
| 2026-05-05 19:07 | 30.47706 | 41.70025 | 38965 ft | 515 kts | 143° |
| 2026-05-05 19:08 | 30.42902 | 41.76198 | 38965 ft | 515 kts | 143° |
| 2026-05-05 19:08 | 30.38105 | 41.82351 | 38968 ft | 515 kts | 143° |
| 2026-05-05 19:09 | 30.33327 | 41.88471 | 38966 ft | 514 kts | 144° |
| 2026-05-05 19:09 | 30.28516 | 41.94622 | 38960 ft | 514 kts | 144° |
| 2026-05-05 19:10 | 30.23737 | 42.00722 | 38964 ft | 514 kts | 144° |
| 2026-05-05 19:10 | 30.18917 | 42.06865 | 38967 ft | 514 kts | 144° |
| 2026-05-05 19:11 | 30.14126 | 42.12963 | 38962 ft | 514 kts | 144° |
| 2026-05-05 19:11 | 30.09647 | 42.19581 | 38959 ft | 531 kts | 134° |
| 2026-05-05 19:12 | 30.06133 | 42.27190 | 38960 ft | 548 kts | 123° |
| 2026-05-05 19:12 | 30.03262 | 42.35404 | 38960 ft | 550 kts | 122° |
| 2026-05-05 19:13 | 30.00379 | 42.43544 | 38971 ft | 550 kts | 122° |
| 2026-05-05 19:13 | 29.97461 | 42.51737 | 38963 ft | 551 kts | 122° |
| 2026-05-05 19:14 | 29.94539 | 42.59924 | 38964 ft | 551 kts | 122° |
| 2026-05-05 19:14 | 29.91629 | 42.68059 | 38963 ft | 551 kts | 122° |
| 2026-05-05 19:15 | 29.88694 | 42.76245 | 38955 ft | 551 kts | 122° |
| 2026-05-05 19:15 | 29.85777 | 42.84362 | 38953 ft | 551 kts | 122° |
| 2026-05-05 19:16 | 29.83327 | 42.91164 | 38951 ft | 551 kts | 122° |
| 2026-05-05 19:16 | 29.79894 | 43.00675 | 38943 ft | 552 kts | 122° |
| 2026-05-05 19:17 | 29.77436 | 43.07468 | 38946 ft | 552 kts | 122° |
| 2026-05-05 19:17 | 29.74484 | 43.15611 | 38953 ft | 553 kts | 122° |
| 2026-05-05 19:18 | 29.71508 | 43.23800 | 38958 ft | 553 kts | 122° |
| 2026-05-05 19:18 | 29.68545 | 43.31935 | 38962 ft | 553 kts | 122° |
| 2026-05-05 19:19 | 29.65556 | 43.40125 | 38966 ft | 553 kts | 122° |
| 2026-05-05 19:19 | 29.62502 | 43.48171 | 38966 ft | 546 kts | 127° |
| 2026-05-05 19:20 | 29.58597 | 43.55530 | 38966 ft | 531 kts | 136° |
| 2026-05-05 19:20 | 29.54389 | 43.62469 | 38958 ft | 531 kts | 135° |
| 2026-05-05 19:21 | 29.50182 | 43.69455 | 38952 ft | 531 kts | 135° |
| 2026-05-05 19:21 | 29.45992 | 43.76402 | 38946 ft | 531 kts | 135° |
| 2026-05-05 19:22 | 29.41775 | 43.83375 | 38952 ft | 530 kts | 135° |
| 2026-05-05 19:22 | 29.37581 | 43.90298 | 38940 ft | 530 kts | 135° |
| 2026-05-05 19:23 | 29.33359 | 43.97258 | 38939 ft | 530 kts | 135° |
| 2026-05-05 19:23 | 29.29335 | 44.03877 | 38933 ft | 529 kts | 135° |
| 2026-05-05 19:24 | 29.25109 | 44.10820 | 38935 ft | 529 kts | 135° |
| 2026-05-05 19:24 | 29.20913 | 44.17701 | 38935 ft | 529 kts | 135° |
| 2026-05-05 19:25 | 29.16690 | 44.24616 | 38930 ft | 529 kts | 135° |
| 2026-05-05 19:25 | 29.12466 | 44.31519 | 38927 ft | 529 kts | 135° |
| 2026-05-05 19:26 | 29.08264 | 44.38376 | 38928 ft | 529 kts | 135° |
| 2026-05-05 19:26 | 29.04033 | 44.45269 | 38928 ft | 528 kts | 135° |
| 2026-05-05 19:27 | 28.99823 | 44.52116 | 38922 ft | 528 kts | 135° |
| 2026-05-05 19:27 | 28.95587 | 44.58994 | 38925 ft | 528 kts | 135° |
| 2026-05-05 19:28 | 28.91352 | 44.65861 | 38927 ft | 528 kts | 135° |
| 2026-05-05 19:28 | 28.87182 | 44.72765 | 38924 ft | 533 kts | 131° |
| 2026-05-05 19:29 | 28.83838 | 44.80416 | 38915 ft | 548 kts | 121° |
| 2026-05-05 19:29 | 28.80979 | 44.88449 | 38915 ft | 548 kts | 121° |
| 2026-05-05 19:30 | 28.78074 | 44.96500 | 38916 ft | 548 kts | 121° |
| 2026-05-05 19:30 | 28.75151 | 45.04567 | 38914 ft | 548 kts | 121° |
| 2026-05-05 19:31 | 28.72244 | 45.12573 | 38909 ft | 549 kts | 121° |
| 2026-05-05 19:31 | 28.69316 | 45.20623 | 38912 ft | 549 kts | 121° |
| 2026-05-05 19:32 | 28.66400 | 45.28622 | 38900 ft | 550 kts | 121° |
| 2026-05-05 19:32 | 28.63469 | 45.36642 | 38901 ft | 550 kts | 121° |
| 2026-05-05 19:33 | 28.60518 | 45.44701 | 38901 ft | 551 kts | 121° |
| 2026-05-05 19:33 | 28.57570 | 45.52735 | 38897 ft | 552 kts | 121° |
| 2026-05-05 19:34 | 28.54600 | 45.60811 | 38894 ft | 553 kts | 121° |
| 2026-05-05 19:35 | 28.50205 | 45.72732 | 38893 ft | 554 kts | 121° |
| 2026-05-05 19:35 | 28.47232 | 45.80771 | 38890 ft | 554 kts | 121° |
| 2026-05-05 19:36 | 28.44229 | 45.88879 | 38888 ft | 554 kts | 121° |
| 2026-05-05 19:36 | 28.41238 | 45.96932 | 38885 ft | 554 kts | 121° |
| 2026-05-05 19:37 | 28.38244 | 46.04980 | 38887 ft | 554 kts | 121° |
| 2026-05-05 19:37 | 28.35061 | 46.12932 | 38884 ft | 546 kts | 128° |
| 2026-05-05 19:38 | 28.31189 | 46.20257 | 38884 ft | 541 kts | 130° |
| 2026-05-05 19:38 | 28.27303 | 46.27546 | 38880 ft | 541 kts | 130° |
| 2026-05-05 19:39 | 28.23391 | 46.34883 | 38867 ft | 541 kts | 130° |
| 2026-05-05 19:39 | 28.19494 | 46.42174 | 38866 ft | 542 kts | 130° |
| 2026-05-05 19:40 | 28.15600 | 46.49444 | 38858 ft | 542 kts | 130° |
| 2026-05-05 19:40 | 28.11662 | 46.56784 | 38854 ft | 543 kts | 130° |
| 2026-05-05 19:41 | 28.07743 | 46.64074 | 38856 ft | 543 kts | 130° |
| 2026-05-05 19:41 | 28.03798 | 46.71403 | 38858 ft | 544 kts | 130° |
| 2026-05-05 19:42 | 27.99860 | 46.78706 | 38854 ft | 544 kts | 130° |
| 2026-05-05 19:42 | 27.95925 | 46.85990 | 38842 ft | 544 kts | 130° |
| 2026-05-05 19:43 | 27.91962 | 46.93313 | 38854 ft | 545 kts | 130° |
| 2026-05-05 19:43 | 27.88011 | 47.00602 | 38852 ft | 545 kts | 130° |
| 2026-05-05 19:44 | 27.84064 | 47.07872 | 38849 ft | 544 kts | 130° |
| 2026-05-05 19:44 | 27.80169 | 47.15270 | 38844 ft | 546 kts | 129° |
| 2026-05-05 19:45 | 27.76336 | 47.22666 | 38842 ft | 546 kts | 129° |
| 2026-05-05 19:45 | 27.72489 | 47.30035 | 38842 ft | 546 kts | 129° |
| 2026-05-05 19:46 | 27.68603 | 47.37447 | 38833 ft | 546 kts | 129° |
| 2026-05-05 19:46 | 27.64744 | 47.44796 | 38834 ft | 545 kts | 129° |
| 2026-05-05 19:47 | 27.60888 | 47.52125 | 38825 ft | 545 kts | 129° |
| 2026-05-05 19:47 | 27.57006 | 47.59490 | 38833 ft | 544 kts | 129° |
| 2026-05-05 19:48 | 27.53142 | 47.66809 | 38836 ft | 543 kts | 129° |
| 2026-05-05 19:48 | 27.49279 | 47.74091 | 38827 ft | 543 kts | 130° |
| 2026-05-05 19:49 | 27.45412 | 47.81366 | 38818 ft | 542 kts | 130° |
| 2026-05-05 19:49 | 27.41523 | 47.88674 | 38811 ft | 541 kts | 129° |
| 2026-05-05 19:50 | 27.37664 | 47.95914 | 38801 ft | 540 kts | 129° |
| 2026-05-05 19:50 | 27.33849 | 48.03183 | 38801 ft | 541 kts | 128° |
| 2026-05-05 19:51 | 27.30588 | 48.10931 | 38793 ft | 553 kts | 117° |
| 2026-05-05 19:51 | 27.28334 | 48.19215 | 38788 ft | 557 kts | 113° |
| 2026-05-05 19:52 | 27.26126 | 48.27595 | 38787 ft | 556 kts | 113° |
| 2026-05-05 19:52 | 27.23916 | 48.35908 | 38782 ft | 556 kts | 113° |
| 2026-05-05 19:53 | 27.21706 | 48.44203 | 38780 ft | 555 kts | 113° |
| 2026-05-05 19:53 | 27.19472 | 48.52550 | 38770 ft | 555 kts | 113° |
| 2026-05-05 19:54 | 27.17255 | 48.60828 | 38763 ft | 555 kts | 113° |
| 2026-05-05 19:54 | 27.15034 | 48.69100 | 38761 ft | 554 kts | 113° |
| 2026-05-05 19:55 | 27.12796 | 48.77414 | 38757 ft | 554 kts | 113° |
| 2026-05-05 19:55 | 27.10299 | 48.85511 | 38754 ft | 546 kts | 121° |
| 2026-05-05 19:56 | 27.06719 | 48.92931 | 38748 ft | 534 kts | 131° |
| 2026-05-05 19:56 | 27.02370 | 48.99575 | 38742 ft | 528 kts | 135° |
| 2026-05-05 19:57 | 26.97984 | 49.06153 | 38741 ft | 528 kts | 135° |
| 2026-05-05 19:57 | 26.93572 | 49.12766 | 38741 ft | 528 kts | 135° |
| 2026-05-05 19:58 | 26.89186 | 49.19324 | 38731 ft | 527 kts | 135° |
| 2026-05-05 19:58 | 26.84796 | 49.25875 | 38730 ft | 527 kts | 135° |
| 2026-05-05 19:59 | 26.80393 | 49.32439 | 38725 ft | 527 kts | 134° |
| 2026-05-05 19:59 | 26.76505 | 49.39509 | 38719 ft | 538 kts | 123° |
| 2026-05-05 20:00 | 26.73697 | 49.47370 | 38716 ft | 547 kts | 114° |
| 2026-05-05 20:00 | 26.71328 | 49.55410 | 38716 ft | 546 kts | 115° |
| 2026-05-05 20:01 | 26.68908 | 49.63486 | 38721 ft | 546 kts | 115° |
| 2026-05-05 20:01 | 26.66500 | 49.71508 | 38728 ft | 546 kts | 115° |
| 2026-05-05 20:02 | 26.64082 | 49.79562 | 38736 ft | 545 kts | 115° |
| 2026-05-05 20:02 | 26.61670 | 49.87578 | 38740 ft | 545 kts | 115° |
| 2026-05-05 20:03 | 26.59253 | 49.95579 | 38740 ft | 545 kts | 115° |
| 2026-05-05 20:03 | 26.57204 | 50.02316 | 38740 ft | 545 kts | 115° |
| 2026-05-05 20:04 | 26.54378 | 50.11609 | 38742 ft | 545 kts | 115° |
| 2026-05-05 20:04 | 26.52349 | 50.18292 | 38748 ft | 545 kts | 115° |
| 2026-05-05 20:05 | 26.49903 | 50.26330 | 38747 ft | 545 kts | 115° |
| 2026-05-05 20:05 | 26.47466 | 50.34316 | 38753 ft | 544 kts | 114° |
| 2026-05-05 20:06 | 26.45070 | 50.42317 | 38751 ft | 546 kts | 113° |
| 2026-05-05 20:06 | 26.42836 | 50.50431 | 38772 ft | 545 kts | 112° |
| 2026-05-05 20:07 | 26.40606 | 50.58475 | 38773 ft | 544 kts | 112° |
| 2026-05-05 20:07 | 26.38330 | 50.66553 | 38775 ft | 544 kts | 113° |
| 2026-05-05 20:08 | 26.36053 | 50.74560 | 38774 ft | 544 kts | 113° |
| 2026-05-05 20:08 | 26.33753 | 50.82624 | 38769 ft | 544 kts | 113° |
| 2026-05-05 20:09 | 26.31465 | 50.90619 | 38767 ft | 543 kts | 114° |
| 2026-05-05 20:09 | 26.28519 | 50.98252 | 38761 ft | 533 kts | 125° |
| 2026-05-05 20:10 | 26.24891 | 51.05418 | 38758 ft | 532 kts | 126° |
| 2026-05-05 20:10 | 26.21257 | 51.12654 | 38761 ft | 533 kts | 126° |
| 2026-05-05 20:11 | 26.17641 | 51.19848 | 38764 ft | 533 kts | 126° |
| 2026-05-05 20:11 | 26.14024 | 51.27028 | 38774 ft | 534 kts | 125° |
| 2026-05-05 20:12 | 26.10379 | 51.34248 | 38777 ft | 534 kts | 125° |
| 2026-05-05 20:12 | 26.06734 | 51.41456 | 38781 ft | 534 kts | 125° |
| 2026-05-05 20:13 | 26.03091 | 51.48647 | 38783 ft | 533 kts | 125° |
| 2026-05-05 20:13 | 25.99449 | 51.55825 | 38778 ft | 533 kts | 125° |
| 2026-05-05 20:14 | 25.95827 | 51.62949 | 38783 ft | 532 kts | 125° |
| 2026-05-05 20:14 | 25.92183 | 51.70109 | 38777 ft | 532 kts | 125° |
| 2026-05-05 20:15 | 25.88569 | 51.77284 | 38777 ft | 533 kts | 124° |
| 2026-05-05 20:15 | 25.85052 | 51.84526 | 38772 ft | 533 kts | 124° |
| 2026-05-05 20:16 | 25.81767 | 51.91927 | 38764 ft | 536 kts | 120° |
| 2026-05-05 20:16 | 25.80207 | 51.95669 | 38519 ft | 533 kts | 120° |
| 2026-05-05 20:16 | 25.78639 | 51.99403 | 37768 ft | 535 kts | 120° |
| 2026-05-05 20:16 | 25.77059 | 52.03153 | 36878 ft | 538 kts | 120° |
| 2026-05-05 20:17 | 25.75468 | 52.06925 | 35912 ft | 541 kts | 120° |
| 2026-05-05 20:17 | 25.73869 | 52.10713 | 34903 ft | 545 kts | 119° |
| 2026-05-05 20:17 | 25.72249 | 52.14550 | 33918 ft | 548 kts | 119° |
| 2026-05-05 20:17 | 25.70654 | 52.18329 | 33109 ft | 545 kts | 119° |
| 2026-05-05 20:18 | 25.69058 | 52.22112 | 32567 ft | 536 kts | 118° |
| 2026-05-05 20:18 | 25.67492 | 52.25822 | 32069 ft | 527 kts | 118° |
| 2026-05-05 20:18 | 25.65942 | 52.29485 | 31376 ft | 524 kts | 118° |
| 2026-05-05 20:18 | 25.64399 | 52.33125 | 30788 ft | 518 kts | 118° |
| 2026-05-05 20:19 | 25.62873 | 52.36721 | 30018 ft | 517 kts | 118° |
| 2026-05-05 20:19 | 25.61737 | 52.39343 | 29482 ft | 514 kts | 120° |
| 2026-05-05 20:19 | 25.60013 | 52.42772 | 28966 ft | 504 kts | 122° |
| 2026-05-05 20:19 | 25.58314 | 52.46127 | 28378 ft | 497 kts | 122° |
| 2026-05-05 20:20 | 25.56650 | 52.49429 | 28118 ft | 484 kts | 122° |
| 2026-05-05 20:20 | 25.55035 | 52.52637 | 27963 ft | 469 kts | 122° |
| 2026-05-05 20:20 | 25.53467 | 52.55747 | 27807 ft | 455 kts | 122° |
| 2026-05-05 20:20 | 25.51902 | 52.58730 | 27675 ft | 440 kts | 128° |
| 2026-05-05 20:21 | 25.49938 | 52.61208 | 27546 ft | 420 kts | 143° |
| 2026-05-05 20:21 | 25.47571 | 52.62962 | 27344 ft | 402 kts | 159° |
| 2026-05-05 20:21 | 25.44957 | 52.63915 | 26834 ft | 392 kts | 175° |
| 2026-05-05 20:21 | 25.42276 | 52.63981 | 26393 ft | 381 kts | 192° |
| 2026-05-05 20:22 | 25.39774 | 52.63181 | 25956 ft | 371 kts | 209° |
| 2026-05-05 20:22 | 25.37648 | 52.61637 | 25521 ft | 364 kts | 222° |
| 2026-05-05 20:22 | 25.35819 | 52.59730 | 25056 ft | 360 kts | 232° |
| 2026-05-05 20:22 | 25.34452 | 52.57434 | 24623 ft | 357 kts | 244° |
| 2026-05-05 20:23 | 25.33603 | 52.54862 | 24196 ft | 355 kts | 258° |
| 2026-05-05 20:23 | 25.33400 | 52.52179 | 23771 ft | 355 kts | 273° |
| 2026-05-05 20:23 | 25.33930 | 52.49503 | 23349 ft | 356 kts | 290° |
| 2026-05-05 20:23 | 25.35086 | 52.47070 | 22875 ft | 356 kts | 297° |
| 2026-05-05 20:24 | 25.36285 | 52.44712 | 22451 ft | 354 kts | 297° |
| 2026-05-05 20:24 | 25.37478 | 52.42335 | 22023 ft | 351 kts | 297° |
| 2026-05-05 20:24 | 25.38662 | 52.39967 | 21569 ft | 350 kts | 297° |
| 2026-05-05 20:24 | 25.39827 | 52.37637 | 21161 ft | 348 kts | 297° |
| 2026-05-05 20:25 | 25.40998 | 52.35297 | 20762 ft | 346 kts | 297° |
| 2026-05-05 20:25 | 25.42165 | 52.32967 | 20362 ft | 343 kts | 298° |
| 2026-05-05 20:25 | 25.43307 | 52.30684 | 20025 ft | 340 kts | 298° |
| 2026-05-05 20:25 | 25.44448 | 52.28404 | 19702 ft | 336 kts | 298° |
| 2026-05-05 20:26 | 25.45579 | 52.26143 | 19378 ft | 333 kts | 298° |
| 2026-05-05 20:26 | 25.46684 | 52.23934 | 19063 ft | 329 kts | 298° |
| 2026-05-05 20:26 | 25.47789 | 52.21721 | 18746 ft | 326 kts | 298° |
| 2026-05-05 20:26 | 25.48885 | 52.19527 | 18435 ft | 323 kts | 298° |
| 2026-05-05 20:27 | 25.49960 | 52.17373 | 18064 ft | 322 kts | 298° |
| 2026-05-05 20:27 | 25.51054 | 52.15179 | 17609 ft | 325 kts | 298° |
| 2026-05-05 20:27 | 25.52147 | 52.12985 | 17348 ft | 323 kts | 298° |
| 2026-05-05 20:27 | 25.53219 | 52.10835 | 17091 ft | 322 kts | 299° |
| 2026-05-05 20:28 | 25.54303 | 52.08660 | 16862 ft | 321 kts | 299° |
| 2026-05-05 20:28 | 25.55385 | 52.06488 | 16550 ft | 320 kts | 299° |
| 2026-05-05 20:28 | 25.56445 | 52.04359 | 16259 ft | 319 kts | 299° |
| 2026-05-05 20:28 | 25.57518 | 52.02203 | 15966 ft | 317 kts | 300° |
| 2026-05-05 20:29 | 25.58579 | 52.00068 | 15677 ft | 315 kts | 300° |
| 2026-05-05 20:29 | 25.59619 | 51.97976 | 15436 ft | 310 kts | 300° |
| 2026-05-05 20:30 | 25.60269 | 51.96307 | 15180 ft | 309 kts | 285° |
| 2026-05-05 20:30 | 25.60374 | 51.93941 | 14900 ft | 309 kts | 262° |
| 2026-05-05 20:30 | 25.59627 | 51.91747 | 14610 ft | 310 kts | 239° |
| 2026-05-05 20:31 | 25.58152 | 51.89999 | 14330 ft | 310 kts | 222° |
| 2026-05-05 20:31 | 25.56524 | 51.88487 | 14035 ft | 307 kts | 222° |
| 2026-05-05 20:31 | 25.54897 | 51.86947 | 13765 ft | 304 kts | 223° |
| 2026-05-05 20:31 | 25.53295 | 51.85419 | 13472 ft | 302 kts | 223° |
| 2026-05-05 20:32 | 25.51729 | 51.83921 | 13201 ft | 299 kts | 223° |
| 2026-05-05 20:32 | 25.50121 | 51.82383 | 13023 ft | 312 kts | 223° |
| 2026-05-05 20:32 | 25.48352 | 51.80882 | 12805 ft | 326 kts | 214° |
| 2026-05-05 20:32 | 25.46385 | 51.79643 | 12412 ft | 328 kts | 211° |
| 2026-05-05 20:33 | 25.44401 | 51.78415 | 12043 ft | 325 kts | 211° |
| 2026-05-05 20:33 | 25.42433 | 51.77184 | 11645 ft | 323 kts | 211° |
| 2026-05-05 20:33 | 25.40504 | 51.75971 | 11265 ft | 321 kts | 211° |
| 2026-05-05 20:33 | 25.38563 | 51.74747 | 10888 ft | 319 kts | 212° |
| 2026-05-05 20:34 | 25.36635 | 51.73531 | 10503 ft | 317 kts | 212° |
| 2026-05-05 20:34 | 25.34738 | 51.72335 | 10138 ft | 315 kts | 212° |
| 2026-05-05 20:34 | 25.32827 | 51.71150 | 9745 ft | 313 kts | 207° |
| 2026-05-05 20:34 | 25.30709 | 51.70536 | 9319 ft | 316 kts | 183° |
| 2026-05-05 20:35 | 25.28541 | 51.70890 | 8902 ft | 315 kts | 162° |
| 2026-05-05 20:35 | 25.26537 | 51.71781 | 8488 ft | 313 kts | 155° |
| 2026-05-05 20:35 | 25.24561 | 51.72795 | 8087 ft | 312 kts | 155° |
| 2026-05-05 20:35 | 25.22588 | 51.73782 | 7673 ft | 310 kts | 156° |
| 2026-05-05 20:36 | 25.20601 | 51.74720 | 7279 ft | 308 kts | 157° |
| 2026-05-05 20:36 | 25.18639 | 51.75608 | 6912 ft | 307 kts | 158° |
| 2026-05-05 20:36 | 25.16665 | 51.76481 | 6655 ft | 300 kts | 158° |
| 2026-05-05 20:36 | 25.14757 | 51.77318 | 6544 ft | 288 kts | 158° |
| 2026-05-05 20:37 | 25.12924 | 51.78119 | 6464 ft | 277 kts | 158° |
| 2026-05-05 20:37 | 25.11747 | 51.78634 | 6402 ft | 270 kts | 158° |
| 2026-05-05 20:37 | 25.09438 | 51.79639 | 6028 ft | 269 kts | 160° |
| 2026-05-05 20:37 | 25.07595 | 51.79894 | 5713 ft | 268 kts | 188° |
| 2026-05-05 20:38 | 25.05890 | 51.79207 | 5435 ft | 263 kts | 217° |
| 2026-05-05 20:38 | 25.04674 | 51.77737 | 5132 ft | 258 kts | 244° |
| 2026-05-05 20:38 | 25.04068 | 51.75882 | 4838 ft | 255 kts | 258° |
| 2026-05-05 20:38 | 25.03648 | 51.74009 | 4571 ft | 254 kts | 259° |
| 2026-05-05 20:39 | 25.03546 | 51.72095 | 4232 ft | 250 kts | 284° |
| 2026-05-05 20:39 | 25.04282 | 51.70434 | 4078 ft | 237 kts | 317° |
| 2026-05-05 20:39 | 25.05592 | 51.69419 | 3981 ft | 226 kts | 334° |
| 2026-05-05 20:39 | 25.07007 | 51.68706 | 3701 ft | 227 kts | 339° |
| 2026-05-05 20:40 | 25.08479 | 51.68069 | 3404 ft | 224 kts | 340° |
| 2026-05-05 20:40 | 25.09907 | 51.67432 | 3119 ft | 218 kts | 340° |
| 2026-05-05 20:40 | 25.11301 | 51.66823 | 2867 ft | 210 kts | 340° |
| 2026-05-05 20:40 | 25.12601 | 51.66247 | 2611 ft | 191 kts | 340° |
| 2026-05-05 20:41 | 25.13787 | 51.65726 | 2369 ft | 177 kts | 341° |
| 2026-05-05 20:41 | 25.14871 | 51.65247 | 2164 ft | 159 kts | 341° |
| 2026-05-05 20:41 | 25.15857 | 51.64813 | 1964 ft | 150 kts | 341° |
| 2026-05-05 20:41 | 25.16824 | 51.64389 | 1760 ft | 148 kts | 341° |
| 2026-05-05 20:42 | 25.17787 | 51.63973 | 1605 ft | 147 kts | 341° |
| 2026-05-05 20:42 | 25.18723 | 51.63545 | 1430 ft | 147 kts | 338° |
| 2026-05-05 20:42 | 25.19668 | 51.63094 | 1244 ft | 148 kts | 341° |
| 2026-05-05 20:42 | 25.20637 | 51.62734 | 1024 ft | 146 kts | 343° |
| 2026-05-05 20:43 | 25.21566 | 51.62314 | 863 ft | 146 kts | 336° |
| 2026-05-05 20:43 | 25.22487 | 51.61851 | 720 ft | 144 kts | 339° |
| 2026-05-05 20:43 | 25.23418 | 51.61453 | 539 ft | 142 kts | 342° |
| 2026-05-05 20:43 | 25.24328 | 51.61042 | 393 ft | 143 kts | 341° |
| 2026-05-05 20:44 | 25.25266 | 51.60647 | 157 ft | 143 kts | 341° |
| 2026-05-05 20:44 | 25.26170 | 51.60262 | 30 ft | 124 kts | 339° |
| 2026-05-05 20:44 | 25.26808 | 51.59982 | 27 ft | 70 kts | 338° |
| 2026-05-05 20:44 | 25.27109 | 51.59854 | 27 ft | 37 kts | 342° |
| 2026-05-05 20:45 | 25.27422 | 51.59865 | 27 ft | 8 kts | 77° |
| 2026-05-05 20:45 | 25.27391 | 51.59927 | 27 ft | 14 kts | 155° |
| 2026-05-05 20:45 | 25.27274 | 51.59983 | 27 ft | 23 kts | 158° |
| 2026-05-05 20:46 | 25.27093 | 51.60062 | 27 ft | 32 kts | 158° |
| 2026-05-05 20:46 | 25.26871 | 51.60161 | 32 ft | 34 kts | 158° |
| 2026-05-05 20:46 | 25.26655 | 51.60257 | 26 ft | 32 kts | 159° |
| 2026-05-05 20:46 | 25.26519 | 51.60338 | 27 ft | 12 kts | 113° |
| 2026-05-05 20:47 | 25.26530 | 51.60433 | 27 ft | 14 kts | 69° |
| 2026-05-05 20:47 | 25.26570 | 51.60546 | 27 ft | 17 kts | 68° |
| 2026-05-05 20:47 | 25.26583 | 51.60658 | 27 ft | 12 kts | 127° |
| 2026-05-05 20:47 | 25.26551 | 51.60746 | 27 ft | 14 kts | 105° |
| 2026-05-05 20:48 | 25.26533 | 51.60861 | 27 ft | 16 kts | 84° |
| 2026-05-05 20:48 | 25.26566 | 51.60963 | 27 ft | 14 kts | 70° |
| 2026-05-05 20:48 | 25.26591 | 51.61027 | 27 ft | 1 kts | 67° |
| 2026-05-05 20:48 | 25.26594 | 51.61036 | 27 ft | 0 kts | 67° |